Nordic Philip — 5BZH2 — position and weather

sailwx.info

Track history (hours):
 
Tides and Currents Weather Stations Pressure Air Temp Water Temp Dewpoint Dewpoint Depression Visibility Wind Speed Wind Dir Waves Ship Positions

Nordic Philip

Last reported at 2014-Sep-16 18:18 UTC. Time now 2014-Sep-16 23:31 UTC.
Position N 55°41' E 015°33'.

Length 151 m; draft 7.2 m.

Type: Ship (hazmat cat A). MMSI: 212018000.

Date/timePositionNaut miles runAvg speedWind from/ knotsBaromVisibWave heightAir tempDewpointWater temp
2014-Sep-16 18:18N 55°41' E 015°33'1114.1
2014-Sep-16 17:32N 55°36' E 015°16'1313.6
2014-Sep-16 16:33N 55°29' E 014°56'1413.8
2014-Sep-16 15:33N 55°22' E 014°35'1414.3
2014-Sep-16 14:33N 55°11' E 014°19'1515.1
2014-Sep-16 13:34N 55°01' E 013°60'1515.4
2014-Sep-16 12:33N 54°55' E 013°35'1515.1
2014-Sep-16 11:32N 54°50' E 013°10'1515.3
2014-Sep-16 10:33N 54°44' E 012°45'1515.1
2014-Sep-16 09:33N 54°37' E 012°23'1414.5
2014-Sep-16 08:33N 54°24' E 012°10'1414.5
2014-Sep-16 07:33N 54°25' E 011°45'1414.2
2014-Sep-16 06:33N 54°31' E 011°23'1313.5
2014-Sep-16 05:34N 54°35' E 011°01'57 8.1
2014-Sep-15 22:33N 54°12' E 009°32'8 7.9
2014-Sep-15 21:33N 54°08' E 009°20'9 8.5
2014-Sep-15 20:33N 53°60' E 009°17'8 8.0
2014-Sep-15 19:33N 53°54' E 009°09'2 2.3
2014-Sep-15 18:33N 53°53' E 009°05'1110.7
2014-Sep-15 17:33N 53°50' E 008°48'1514.9
2014-Sep-15 16:33N 53°59' E 008°27'1414.3
2014-Sep-15 15:33N 53°58' E 008°02'6416.0
2014-Sep-15 11:32N 53°43' E 006°16'1616.2
2014-Sep-15 10:33N 53°38' E 005°51'1615.8
2014-Sep-15 09:34N 53°33' E 005°26'1514.9
2014-Sep-15 08:33N 53°28' E 005°02'1615.8
2014-Sep-15 07:33N 53°20' E 004°40'1716.6
2014-Sep-15 06:34N 53°06' E 004°25'1616.2
2014-Sep-15 05:33N 52°51' E 004°13'1615.9
2014-Sep-15 04:33N 52°39' E 003°57'1515.5
2014-Sep-15 03:33N 52°27' E 003°40'1515.3
2014-Sep-15 02:33N 52°13' E 003°31'1514.8
2014-Sep-15 01:32N 51°59' E 003°22'1614.4
2014-Sep-15 00:24N 51°43' E 003°14'1212.7
2014-Sep-14 23:30N 51°33' E 003°07'9 8.6
2014-Sep-14 22:30N 51°24' E 003°09'1717.6
2014-Sep-14 21:33N 51°26' E 003°36'1313.4
2014-Sep-14 20:34N 51°24' E 003°57'1211.9
2014-Sep-14 19:34N 51°21' E 004°16'1 0.8
2014-Sep-14 18:33N 51°20' E 004°16'0 0.0
2014-Sep-14 17:33N 51°20' E 004°16'0 0.0
2014-Sep-14 16:33N 51°20' E 004°16'0 0.0
2014-Sep-14 15:33N 51°20' E 004°16'0 0.0
2014-Sep-14 14:33N 51°20' E 004°16'0 0.0
2014-Sep-14 13:33N 51°20' E 004°16'0 0.0
2014-Sep-14 12:33N 51°20' E 004°16'0 0.0
2014-Sep-14 11:33N 51°20' E 004°16'0 0.0
2014-Sep-14 10:34N 51°20' E 004°16'0 0.0
2014-Sep-14 09:33N 51°20' E 004°16'0 0.0
2014-Sep-14 08:33N 51°20' E 004°16'0 0.0
2014-Sep-14 07:33N 51°20' E 004°16'0 0.0
2014-Sep-14 06:33N 51°20' E 004°16'0 0.0
2014-Sep-14 05:33N 51°20' E 004°16'0 0.0
2014-Sep-14 04:33N 51°20' E 004°16'0 0.0
2014-Sep-14 03:33N 51°20' E 004°16'0 0.0
2014-Sep-14 02:34N 51°20' E 004°16'0 0.0
2014-Sep-14 01:34N 51°20' E 004°16'39 9.7
2014-Sep-13 21:33N 51°38' E 003°21'1211.8
2014-Sep-13 20:31N 51°50' E 003°16'1515.1
2014-Sep-13 19:33N 52°03' E 003°27'1616.2
2014-Sep-13 18:33N 52°03' E 003°53'9 8.8
2014-Sep-13 17:33N 51°57' E 004°04'0 0.0
2014-Sep-13 16:31N 51°57' E 004°04'0 0.0
2014-Sep-13 15:31N 51°57' E 004°04'0 0.0
2014-Sep-13 14:31N 51°57' E 004°04'0 0.0
2014-Sep-13 13:31N 51°57' E 004°04'0 0.0
2014-Sep-13 12:31N 51°57' E 004°04'0 0.0
2014-Sep-13 11:31N 51°57' E 004°04'0 0.0
2014-Sep-13 10:31N 51°57' E 004°04'0 0.0
2014-Sep-13 09:28N 51°57' E 004°04'0 0.0
2014-Sep-13 08:31N 51°57' E 004°04'0 0.0
2014-Sep-13 07:31N 51°57' E 004°04'4 4.0
2014-Sep-13 06:33N 51°60' E 003°60'1110.3
2014-Sep-13 05:31N 52°06' E 003°46'7 7.4
2014-Sep-13 04:33N 52°13' E 003°47'6 6.0
2014-Sep-13 03:33N 52°19' E 003°48'6 5.7
2014-Sep-13 02:33N 52°25' E 003°50'1111.1
2014-Sep-13 01:33N 52°36' E 003°51'1211.7
2014-Sep-13 00:33N 52°47' E 003°56'2311.4
2014-Sep-12 22:33N 53°07' E 004°16'1110.8
2014-Sep-12 21:33N 53°15' E 004°27'1210.8
2014-Sep-12 20:29N 53°26' E 004°36'1010.9
2014-Sep-12 19:33N 53°31' E 004°50'1211.5
2014-Sep-12 18:33N 53°35' E 005°08'1211.7
2014-Sep-12 17:33N 53°39' E 005°27'1312.7
2014-Sep-12 16:33N 53°43' E 005°47'1312.8
2014-Sep-12 15:33N 53°47' E 006°07'5011.8
2014-Sep-12 11:19N 53°60' E 007°30'810.6
2014-Sep-12 10:33N 54°01' E 007°43'1110.7
2014-Sep-12 09:33N 54°02' E 008°01'1212.1
2014-Sep-12 08:33N 53°60' E 008°21'1515.5
2014-Sep-12 07:33N 53°52' E 008°44'1514.6
2014-Sep-12 06:33N 53°54' E 009°09'4 4.2
2014-Sep-12 05:33N 53°57' E 009°14'6 6.4
2014-Sep-12 04:33N 54°03' E 009°18'6 5.7
2014-Sep-12 03:33N 54°08' E 009°20'8 8.0
2014-Sep-12 02:33N 54°12' E 009°33'50 7.2
2014-Sep-11 19:33N 54°35' E 010°48'1414.3
2014-Sep-11 18:33N 54°35' E 011°13'1515.3
2014-Sep-11 17:33N 54°29' E 011°37'1515.1
2014-Sep-11 16:33N 54°26' E 012°02'1313.3
2014-Sep-11 15:33N 54°37' E 012°16'1715.6
2014-Sep-11 14:29N 54°46' E 012°40'1415.3
2014-Sep-11 13:33N 54°52' E 013°03'1515.3
2014-Sep-11 12:34N 54°57' E 013°28'1515.3
2014-Sep-11 11:33N 55°03' E 013°53'1514.8
2014-Sep-11 10:33N 55°12' E 014°13'1515.4
2014-Sep-11 09:33N 55°23' E 014°31'1515.3
2014-Sep-11 08:33N 55°32' E 014°53'1715.4
2014-Sep-11 07:28N 55°40' E 015°19'1515.2
2014-Sep-11 06:28N 55°48' E 015°42'1415.3
2014-Sep-11 05:33N 55°55' E 016°04'9915.4
2014-Sep-10 23:10N 56°54' E 018°27'21415.2
2014-Sep-10 09:04N 59°34' E 022°58'815.3
2014-Sep-10 08:33N 59°36' E 023°13'1515.3
2014-Sep-10 07:33N 59°41' E 023°42'1515.4
2014-Sep-10 06:33N 59°45' E 024°11'1715.4
2014-Sep-10 05:26N 59°49' E 024°44'3317.1
2014-Sep-10 03:28N 59°56' E 025°50'1617.3
2014-Sep-10 02:33N 60°00' E 026°20'1716.8
2014-Sep-10 01:33N 60°00' E 026°54'1916.3
2014-Sep-10 00:24N 60°07' E 027°28'83 3.8
2014-Sep-09 02:25N 59°53' E 030°12'4 4.6
2014-Sep-09 01:33N 59°54' E 030°05'93 2.6
2014-Sep-07 14:29N 59°58' E 026°60'1213.0
2014-Sep-07 13:34N 59°59' E 026°36'1313.3
2014-Sep-07 12:34N 59°56' E 026°10'1313.4
2014-Sep-07 11:33N 59°52' E 025°44'1313.2
2014-Sep-07 10:33N 59°49' E 025°19'1313.1
2014-Sep-07 09:33N 59°46' E 024°53'1313.1
2014-Sep-07 08:33N 59°43' E 024°28'1413.1
2014-Sep-07 07:31N 59°39' E 024°02'1614.2
2014-Sep-07 06:23N 59°34' E 023°32'3314.5
2014-Sep-07 04:06N 59°22' E 022°31'13013.7
2014-Sep-06 18:33N 57°26' E 020°38'  
Track history (hours):
 
Tides and Currents Weather Stations Pressure Air Temp Water Temp Dewpoint Dewpoint Depression Visibility Wind Speed Wind Dir Waves Ship Positions

Nordic Philip

Last reported at 2014-Sep-16 18:18 UTC. Time now 2014-Sep-16 23:31 UTC.
Position N 55°41' E 015°33'.

Length 151 m; draft 7.2 m.

Type: Ship (hazmat cat A). MMSI: 212018000.

Date/timePositionNaut miles runAvg speedWind from/ knotsBaromVisibWave heightAir tempDewpointWater temp
2014-Sep-16 18:18N 55°41' E 015°33'1114.1
2014-Sep-16 17:32N 55°36' E 015°16'1313.6
2014-Sep-16 16:33N 55°29' E 014°56'1413.8
2014-Sep-16 15:33N 55°22' E 014°35'1414.3
2014-Sep-16 14:33N 55°11' E 014°19'1515.1
2014-Sep-16 13:34N 55°01' E 013°60'1515.4
2014-Sep-16 12:33N 54°55' E 013°35'1515.1
2014-Sep-16 11:32N 54°50' E 013°10'1515.3
2014-Sep-16 10:33N 54°44' E 012°45'1515.1
2014-Sep-16 09:33N 54°37' E 012°23'1414.5
2014-Sep-16 08:33N 54°24' E 012°10'1414.5
2014-Sep-16 07:33N 54°25' E 011°45'1414.2
2014-Sep-16 06:33N 54°31' E 011°23'1313.5
2014-Sep-16 05:34N 54°35' E 011°01'57 8.1
2014-Sep-15 22:33N 54°12' E 009°32'8 7.9
2014-Sep-15 21:33N 54°08' E 009°20'9 8.5
2014-Sep-15 20:33N 53°60' E 009°17'8 8.0
2014-Sep-15 19:33N 53°54' E 009°09'2 2.3
2014-Sep-15 18:33N 53°53' E 009°05'1110.7
2014-Sep-15 17:33N 53°50' E 008°48'1514.9
2014-Sep-15 16:33N 53°59' E 008°27'1414.3
2014-Sep-15 15:33N 53°58' E 008°02'6416.0
2014-Sep-15 11:32N 53°43' E 006°16'1616.2
2014-Sep-15 10:33N 53°38' E 005°51'1615.8
2014-Sep-15 09:34N 53°33' E 005°26'1514.9
2014-Sep-15 08:33N 53°28' E 005°02'1615.8
2014-Sep-15 07:33N 53°20' E 004°40'1716.6
2014-Sep-15 06:34N 53°06' E 004°25'1616.2
2014-Sep-15 05:33N 52°51' E 004°13'1615.9
2014-Sep-15 04:33N 52°39' E 003°57'1515.5
2014-Sep-15 03:33N 52°27' E 003°40'1515.3
2014-Sep-15 02:33N 52°13' E 003°31'1514.8
2014-Sep-15 01:32N 51°59' E 003°22'1614.4
2014-Sep-15 00:24N 51°43' E 003°14'1212.7
2014-Sep-14 23:30N 51°33' E 003°07'9 8.6
2014-Sep-14 22:30N 51°24' E 003°09'1717.6
2014-Sep-14 21:33N 51°26' E 003°36'1313.4
2014-Sep-14 20:34N 51°24' E 003°57'1211.9
2014-Sep-14 19:34N 51°21' E 004°16'1 0.8
2014-Sep-14 18:33N 51°20' E 004°16'0 0.0
2014-Sep-14 17:33N 51°20' E 004°16'0 0.0
2014-Sep-14 16:33N 51°20' E 004°16'0 0.0
2014-Sep-14 15:33N 51°20' E 004°16'0 0.0
2014-Sep-14 14:33N 51°20' E 004°16'0 0.0
2014-Sep-14 13:33N 51°20' E 004°16'0 0.0
2014-Sep-14 12:33N 51°20' E 004°16'0 0.0
2014-Sep-14 11:33N 51°20' E 004°16'0 0.0
2014-Sep-14 10:34N 51°20' E 004°16'0 0.0
2014-Sep-14 09:33N 51°20' E 004°16'0 0.0
2014-Sep-14 08:33N 51°20' E 004°16'0 0.0
2014-Sep-14 07:33N 51°20' E 004°16'0 0.0
2014-Sep-14 06:33N 51°20' E 004°16'0 0.0
2014-Sep-14 05:33N 51°20' E 004°16'0 0.0
2014-Sep-14 04:33N 51°20' E 004°16'0 0.0
2014-Sep-14 03:33N 51°20' E 004°16'0 0.0
2014-Sep-14 02:34N 51°20' E 004°16'0 0.0
2014-Sep-14 01:34N 51°20' E 004°16'39 9.7
2014-Sep-13 21:33N 51°38' E 003°21'1211.8
2014-Sep-13 20:31N 51°50' E 003°16'1515.1
2014-Sep-13 19:33N 52°03' E 003°27'1616.2
2014-Sep-13 18:33N 52°03' E 003°53'9 8.8
2014-Sep-13 17:33N 51°57' E 004°04'0 0.0
2014-Sep-13 16:31N 51°57' E 004°04'0 0.0
2014-Sep-13 15:31N 51°57' E 004°04'0 0.0
2014-Sep-13 14:31N 51°57' E 004°04'0 0.0
2014-Sep-13 13:31N 51°57' E 004°04'0 0.0
2014-Sep-13 12:31N 51°57' E 004°04'0 0.0
2014-Sep-13 11:31N 51°57' E 004°04'0 0.0
2014-Sep-13 10:31N 51°57' E 004°04'0 0.0
2014-Sep-13 09:28N 51°57' E 004°04'0 0.0
2014-Sep-13 08:31N 51°57' E 004°04'0 0.0
2014-Sep-13 07:31N 51°57' E 004°04'4 4.0
2014-Sep-13 06:33N 51°60' E 003°60'1110.3
2014-Sep-13 05:31N 52°06' E 003°46'7 7.4
2014-Sep-13 04:33N 52°13' E 003°47'6 6.0
2014-Sep-13 03:33N 52°19' E 003°48'6 5.7
2014-Sep-13 02:33N 52°25' E 003°50'1111.1
2014-Sep-13 01:33N 52°36' E 003°51'1211.7
2014-Sep-13 00:33N 52°47' E 003°56'2311.4
2014-Sep-12 22:33N 53°07' E 004°16'1110.8
2014-Sep-12 21:33N 53°15' E 004°27'1210.8
2014-Sep-12 20:29N 53°26' E 004°36'1010.9
2014-Sep-12 19:33N 53°31' E 004°50'1211.5
2014-Sep-12 18:33N 53°35' E 005°08'1211.7
2014-Sep-12 17:33N 53°39' E 005°27'1312.7
2014-Sep-12 16:33N 53°43' E 005°47'1312.8
2014-Sep-12 15:33N 53°47' E 006°07'5011.8
2014-Sep-12 11:19N 53°60' E 007°30'810.6
2014-Sep-12 10:33N 54°01' E 007°43'1110.7
2014-Sep-12 09:33N 54°02' E 008°01'1212.1
2014-Sep-12 08:33N 53°60' E 008°21'1515.5
2014-Sep-12 07:33N 53°52' E 008°44'1514.6
2014-Sep-12 06:33N 53°54' E 009°09'4 4.2
2014-Sep-12 05:33N 53°57' E 009°14'6 6.4
2014-Sep-12 04:33N 54°03' E 009°18'6 5.7
2014-Sep-12 03:33N 54°08' E 009°20'8 8.0
2014-Sep-12 02:33N 54°12' E 009°33'50 7.2
2014-Sep-11 19:33N 54°35' E 010°48'1414.3
2014-Sep-11 18:33N 54°35' E 011°13'1515.3
2014-Sep-11 17:33N 54°29' E 011°37'1515.1
2014-Sep-11 16:33N 54°26' E 012°02'1313.3
2014-Sep-11 15:33N 54°37' E 012°16'1715.6
2014-Sep-11 14:29N 54°46' E 012°40'1415.3
2014-Sep-11 13:33N 54°52' E 013°03'1515.3
2014-Sep-11 12:34N 54°57' E 013°28'1515.3
2014-Sep-11 11:33N 55°03' E 013°53'1514.8
2014-Sep-11 10:33N 55°12' E 014°13'1515.4
2014-Sep-11 09:33N 55°23' E 014°31'1515.3
2014-Sep-11 08:33N 55°32' E 014°53'1715.4
2014-Sep-11 07:28N 55°40' E 015°19'1515.2
2014-Sep-11 06:28N 55°48' E 015°42'1415.3
2014-Sep-11 05:33N 55°55' E 016°04'9915.4
2014-Sep-10 23:10N 56°54' E 018°27'21415.2
2014-Sep-10 09:04N 59°34' E 022°58'815.3
2014-Sep-10 08:33N 59°36' E 023°13'1515.3
2014-Sep-10 07:33N 59°41' E 023°42'1515.4
2014-Sep-10 06:33N 59°45' E 024°11'1715.4
2014-Sep-10 05:26N 59°49' E 024°44'3317.1
2014-Sep-10 03:28N 59°56' E 025°50'1617.3
2014-Sep-10 02:33N 60°00' E 026°20'1716.8
2014-Sep-10 01:33N 60°00' E 026°54'1916.3
2014-Sep-10 00:24N 60°07' E 027°28'83 3.8
2014-Sep-09 02:25N 59°53' E 030°12'4 4.6
2014-Sep-09 01:33N 59°54' E 030°05'93 2.6
2014-Sep-07 14:29N 59°58' E 026°60'1213.0
2014-Sep-07 13:34N 59°59' E 026°36'1313.3
2014-Sep-07 12:34N 59°56' E 026°10'1313.4
2014-Sep-07 11:33N 59°52' E 025°44'1313.2
2014-Sep-07 10:33N 59°49' E 025°19'1313.1
2014-Sep-07 09:33N 59°46' E 024°53'1313.1
2014-Sep-07 08:33N 59°43' E 024°28'1413.1
2014-Sep-07 07:31N 59°39' E 024°02'1614.2
2014-Sep-07 06:23N 59°34' E 023°32'3314.5
2014-Sep-07 04:06N 59°22' E 022°31'13013.7
2014-Sep-06 18:33N 57°26' E 020°38'  

Dump ship's entire track history